createdAt,value
2023-01-15T00:00:46.599Z,0.00
2023-01-15T00:01:46.591Z,0.00
2023-01-15T00:02:46.619Z,0.00
2023-01-15T00:03:46.563Z,0.00
2023-01-15T00:04:46.520Z,0.00
2023-01-15T00:05:46.510Z,0.00
2023-01-15T00:06:46.523Z,0.00
2023-01-15T00:07:46.536Z,0.00
2023-01-15T00:08:46.501Z,0.00
2023-01-15T00:09:46.507Z,0.00
2023-01-15T00:10:46.489Z,0.00
2023-01-15T00:11:46.456Z,0.00
2023-01-15T00:12:46.453Z,0.00
2023-01-15T00:13:46.476Z,0.00
2023-01-15T00:14:46.427Z,0.00
2023-01-15T00:15:46.422Z,0.00
2023-01-15T00:16:46.408Z,0.00
2023-01-15T00:17:46.375Z,0.00
2023-01-15T00:18:46.434Z,0.00
2023-01-15T00:19:46.369Z,0.00
2023-01-15T00:20:46.362Z,0.00
2023-01-15T00:21:46.353Z,0.00
2023-01-15T00:22:46.338Z,0.00
2023-01-15T00:23:46.323Z,0.00
2023-01-15T00:24:46.341Z,0.00
2023-01-15T00:25:46.300Z,0.00
2023-01-15T00:26:46.290Z,0.00
2023-01-15T00:27:46.271Z,0.00
2023-01-15T00:28:46.284Z,0.00
2023-01-15T00:29:46.281Z,0.00
2023-01-15T00:30:46.324Z,0.00
2023-01-15T00:31:46.254Z,0.00
2023-01-15T00:32:46.248Z,0.00
2023-01-15T00:33:46.240Z,0.00
2023-01-15T00:34:46.225Z,0.00
2023-01-15T00:35:46.372Z,0.00
2023-01-15T00:36:46.239Z,0.00
2023-01-15T00:37:46.220Z,0.00
2023-01-15T00:38:46.256Z,0.00
2023-01-15T00:39:46.260Z,0.00
2023-01-15T00:40:46.224Z,0.00
2023-01-15T00:41:46.274Z,0.00
2023-01-15T00:42:54.322Z,0.00
2023-01-15T00:43:46.101Z,0.00
2023-01-15T00:44:46.102Z,0.00
2023-01-15T00:45:46.142Z,0.00
2023-01-15T00:46:46.095Z,0.00
2023-01-15T00:47:46.067Z,0.00
2023-01-15T00:48:46.065Z,0.00
2023-01-15T00:49:46.094Z,0.00
2023-01-15T00:50:46.037Z,0.00
2023-01-15T00:51:46.037Z,0.00
2023-01-15T00:52:46.026Z,0.00
2023-01-15T00:53:46.024Z,0.00
2023-01-15T00:54:46.019Z,0.00
2023-01-15T00:55:46.135Z,0.00
2023-01-15T00:56:45.978Z,0.00
2023-01-15T00:57:45.989Z,0.00
2023-01-15T00:58:45.947Z,0.00
2023-01-15T00:59:45.926Z,0.00
2023-01-15T01:00:46.070Z,0.00
2023-01-15T01:01:45.993Z,0.00
2023-01-15T01:02:45.958Z,0.00
2023-01-15T01:03:45.897Z,0.00
2023-01-15T01:04:45.899Z,0.00
2023-01-15T01:05:45.892Z,0.00
2023-01-15T01:06:45.908Z,0.00
2023-01-15T01:07:45.853Z,0.00
2023-01-15T01:08:45.853Z,0.00
2023-01-15T01:09:45.838Z,0.00
2023-01-15T01:10:45.818Z,0.00
2023-01-15T01:11:45.832Z,0.00
2023-01-15T01:12:45.802Z,0.00
2023-01-15T01:13:45.780Z,0.00
2023-01-15T01:14:45.855Z,0.00
2023-01-15T01:15:45.757Z,0.00
2023-01-15T01:16:45.793Z,0.00
2023-01-15T01:17:45.748Z,0.00
2023-01-15T01:18:45.748Z,0.00
2023-01-15T01:19:45.725Z,0.00
2023-01-15T01:20:45.728Z,0.00
2023-01-15T01:21:45.739Z,0.00
2023-01-15T01:22:45.742Z,0.00
2023-01-15T01:23:45.677Z,0.00
2023-01-15T01:24:45.690Z,0.00
2023-01-15T01:25:45.652Z,0.00
2023-01-15T01:26:45.658Z,0.00
2023-01-15T01:27:45.635Z,0.00
2023-01-15T01:28:45.738Z,0.00
2023-01-15T01:29:45.616Z,0.00
2023-01-15T01:30:45.599Z,0.00
2023-01-15T01:31:45.657Z,0.00
2023-01-15T01:32:45.601Z,0.00
2023-01-15T01:33:45.567Z,0.00
2023-01-15T01:34:45.599Z,0.00
2023-01-15T01:35:45.616Z,0.00
2023-01-15T01:36:45.562Z,0.00
2023-01-15T01:37:45.544Z,0.00
2023-01-15T01:38:45.511Z,0.00
2023-01-15T01:39:45.545Z,0.00
2023-01-15T01:40:45.527Z,0.00
2023-01-15T01:41:45.483Z,0.00
2023-01-15T01:42:45.476Z,0.00
2023-01-15T01:43:45.459Z,0.00
2023-01-15T01:44:45.456Z,0.00
2023-01-15T01:45:45.516Z,0.00
2023-01-15T01:46:45.430Z,0.00
2023-01-15T01:47:45.413Z,0.00
2023-01-15T01:48:45.427Z,0.00
2023-01-15T01:49:45.420Z,0.00
2023-01-15T01:50:45.399Z,0.00
2023-01-15T01:51:45.367Z,0.00
2023-01-15T01:52:45.377Z,0.00
2023-01-15T01:53:45.352Z,0.00
2023-01-15T01:54:45.358Z,0.00
2023-01-15T01:55:45.350Z,0.00
2023-01-15T01:56:45.327Z,0.00
2023-01-15T01:57:45.362Z,0.00
2023-01-15T01:58:45.309Z,0.00
2023-01-15T01:59:45.290Z,0.00
2023-01-15T02:00:45.335Z,0.00
2023-01-15T02:01:45.391Z,0.00
2023-01-15T02:02:45.359Z,0.00
2023-01-15T02:03:45.254Z,0.00
2023-01-15T02:04:45.248Z,0.00
2023-01-15T02:05:45.244Z,0.00
2023-01-15T02:06:45.234Z,0.00
2023-01-15T02:07:45.225Z,0.00
2023-01-15T02:08:45.209Z,0.00
2023-01-15T02:09:45.191Z,0.00
2023-01-15T02:10:45.453Z,0.00
2023-01-15T02:11:45.180Z,0.00
2023-01-15T02:12:45.165Z,0.00
2023-01-15T02:13:45.784Z,0.00
2023-01-15T02:14:45.177Z,0.00
2023-01-15T02:15:45.160Z,0.00
2023-01-15T02:16:45.217Z,0.00
2023-01-15T02:17:45.092Z,0.00
2023-01-15T02:18:45.090Z,0.00
2023-01-15T02:19:45.097Z,0.00
2023-01-15T02:20:45.078Z,0.00
2023-01-15T02:21:45.083Z,0.00
2023-01-15T02:22:45.060Z,0.00
2023-01-15T02:23:45.031Z,0.00
2023-01-15T02:24:45.022Z,0.00
2023-01-15T02:25:45.020Z,0.00
2023-01-15T02:26:45.045Z,0.00
2023-01-15T02:27:44.981Z,0.00
2023-01-15T02:28:44.986Z,0.00
2023-01-15T02:29:44.965Z,0.00
2023-01-15T02:30:44.973Z,0.00
2023-01-15T02:31:44.970Z,0.00
2023-01-15T02:32:44.972Z,0.00
2023-01-15T02:33:44.913Z,0.00
2023-01-15T02:34:44.908Z,0.00
2023-01-15T02:35:44.917Z,0.00
2023-01-15T02:36:45.008Z,0.00
2023-01-15T02:37:44.910Z,0.00
2023-01-15T02:38:44.902Z,0.00
2023-01-15T02:39:45.028Z,0.00
2023-01-15T02:40:44.861Z,0.00
2023-01-15T02:41:44.969Z,0.00
2023-01-15T02:42:44.879Z,0.00
2023-01-15T02:43:44.881Z,0.00
2023-01-15T02:44:44.817Z,0.00
2023-01-15T02:45:44.821Z,0.00
2023-01-15T02:46:44.835Z,0.00
2023-01-15T02:47:44.840Z,0.00
2023-01-15T02:48:44.806Z,0.00
2023-01-15T02:49:44.742Z,0.00
2023-01-15T02:50:44.763Z,0.00
2023-01-15T02:51:44.740Z,0.00
2023-01-15T02:52:44.736Z,0.00
2023-01-15T02:53:44.728Z,0.00
2023-01-15T02:54:44.719Z,0.00
2023-01-15T02:55:44.685Z,0.00
2023-01-15T02:56:44.680Z,0.00
2023-01-15T02:57:44.687Z,0.00
2023-01-15T02:58:44.685Z,0.00
2023-01-15T02:59:44.638Z,0.00
2023-01-15T03:00:44.676Z,0.00
2023-01-15T03:01:44.792Z,0.00
2023-01-15T03:02:44.633Z,0.00
2023-01-15T03:03:44.610Z,0.00
2023-01-15T03:04:44.673Z,0.00
2023-01-15T03:05:44.567Z,0.00
2023-01-15T03:06:44.576Z,0.00
2023-01-15T03:07:44.565Z,0.00
2023-01-15T03:08:44.572Z,0.00
2023-01-15T03:09:44.540Z,0.00
2023-01-15T03:10:44.547Z,0.00
2023-01-15T03:11:44.513Z,0.00
2023-01-15T03:12:44.502Z,0.00
2023-01-15T03:13:44.533Z,0.00
2023-01-15T03:14:44.505Z,0.00
2023-01-15T03:15:44.460Z,0.00
2023-01-15T03:16:44.524Z,0.00
2023-01-15T03:17:44.483Z,0.00
2023-01-15T03:18:44.468Z,0.00
2023-01-15T03:19:44.432Z,0.00
2023-01-15T03:20:44.421Z,0.00
2023-01-15T03:21:44.531Z,0.00
2023-01-15T03:22:44.387Z,0.00
2023-01-15T03:23:44.386Z,0.00
2023-01-15T03:24:44.367Z,0.00
2023-01-15T03:25:44.367Z,0.00
2023-01-15T03:26:44.351Z,0.00
2023-01-15T03:27:44.352Z,0.00
2023-01-15T03:28:44.329Z,0.00
2023-01-15T03:29:44.428Z,0.00
2023-01-15T03:30:44.409Z,0.00
2023-01-15T03:31:44.319Z,0.00
2023-01-15T03:32:44.298Z,0.00
2023-01-15T03:33:44.442Z,0.00
2023-01-15T03:34:44.269Z,0.00
2023-01-15T03:35:44.353Z,0.00
2023-01-15T03:36:44.377Z,0.00
2023-01-15T03:37:44.237Z,0.00
2023-01-15T03:38:44.376Z,0.00
2023-01-15T03:39:44.243Z,0.00
2023-01-15T03:40:44.227Z,0.00
2023-01-15T03:41:44.229Z,0.00
2023-01-15T03:42:44.180Z,0.00
2023-01-15T03:43:44.181Z,0.00
2023-01-15T03:44:44.163Z,0.00
2023-01-15T03:45:44.265Z,0.00
2023-01-15T03:46:44.177Z,0.00
2023-01-15T03:47:44.143Z,0.00
2023-01-15T03:48:44.117Z,0.00
2023-01-15T03:49:44.124Z,0.00
2023-01-15T03:50:44.115Z,0.00
2023-01-15T03:51:44.108Z,0.00
2023-01-15T03:52:44.122Z,0.00
2023-01-15T03:53:44.116Z,0.00
2023-01-15T03:54:44.083Z,0.00
2023-01-15T03:55:44.087Z,0.00
2023-01-15T03:56:44.024Z,0.00
2023-01-15T03:57:44.084Z,0.00
2023-01-15T03:58:44.012Z,0.00
2023-01-15T03:59:44.007Z,0.00
2023-01-15T04:00:44.043Z,0.00
2023-01-15T04:01:44.036Z,0.00
2023-01-15T04:02:44.234Z,0.00
2023-01-15T04:03:43.965Z,0.00
2023-01-15T04:04:43.965Z,0.00
2023-01-15T04:05:43.941Z,0.00
2023-01-15T04:06:43.924Z,0.00
2023-01-15T04:07:43.941Z,0.00
2023-01-15T04:08:43.988Z,0.00
2023-01-15T04:09:43.931Z,0.00
2023-01-15T04:10:43.885Z,0.00
2023-01-15T04:11:43.940Z,0.00
2023-01-15T04:12:43.877Z,0.00
2023-01-15T04:13:43.866Z,0.00
2023-01-15T04:14:43.953Z,0.00
2023-01-15T04:15:43.864Z,0.00
2023-01-15T04:16:43.823Z,0.00
2023-01-15T04:17:43.837Z,0.00
2023-01-15T04:18:43.808Z,0.00
2023-01-15T04:19:43.824Z,0.00
2023-01-15T04:20:43.789Z,0.00
2023-01-15T04:21:43.766Z,0.00
2023-01-15T04:22:43.761Z,0.00
2023-01-15T04:23:43.778Z,0.00
2023-01-15T04:24:43.733Z,0.00
2023-01-15T04:25:43.750Z,0.00
2023-01-15T04:26:43.743Z,0.00
2023-01-15T04:27:43.698Z,0.00
2023-01-15T04:28:43.733Z,0.00
2023-01-15T04:29:44.081Z,0.00
2023-01-15T04:30:43.821Z,0.00
2023-01-15T04:31:43.659Z,0.00
2023-01-15T04:32:43.673Z,0.00
2023-01-15T04:33:43.665Z,0.00
2023-01-15T04:34:43.653Z,0.00
2023-01-15T04:35:43.611Z,0.00
2023-01-15T04:36:43.604Z,0.00
2023-01-15T04:37:43.608Z,0.00
2023-01-15T04:38:43.577Z,0.00
2023-01-15T04:39:43.781Z,0.00
2023-01-15T04:40:43.554Z,0.00
2023-01-15T04:41:43.563Z,0.00
2023-01-15T04:42:43.541Z,0.00
2023-01-15T04:43:43.538Z,0.00
2023-01-15T04:44:43.544Z,0.00
2023-01-15T04:45:43.739Z,0.00
2023-01-15T04:46:43.495Z,0.00
2023-01-15T04:47:43.496Z,0.00
2023-01-15T04:48:43.468Z,0.00
2023-01-15T04:49:43.474Z,0.00
2023-01-15T04:50:44.360Z,0.00
2023-01-15T04:51:43.479Z,0.00
2023-01-15T04:52:43.554Z,0.00
2023-01-15T04:53:43.432Z,0.00
2023-01-15T04:54:43.400Z,0.00
2023-01-15T04:55:43.463Z,0.00
2023-01-15T04:56:43.399Z,0.00
2023-01-15T04:57:43.387Z,0.00
2023-01-15T04:58:43.380Z,0.00
2023-01-15T04:59:43.375Z,0.00
2023-01-15T05:00:43.389Z,0.00
2023-01-15T05:01:57.933Z,0.00
2023-01-15T05:02:43.396Z,0.00
2023-01-15T05:03:43.366Z,0.00
2023-01-15T05:04:43.394Z,0.00
2023-01-15T05:05:43.349Z,0.00
2023-01-15T05:06:43.335Z,0.00
2023-01-15T05:07:43.368Z,0.00
2023-01-15T05:08:43.266Z,0.00
2023-01-15T05:09:43.278Z,0.00
2023-01-15T05:10:43.240Z,0.00
2023-01-15T05:11:43.279Z,0.00
2023-01-15T05:12:43.220Z,0.00
2023-01-15T05:13:43.311Z,0.00
2023-01-15T05:14:43.219Z,0.00
2023-01-15T05:15:43.331Z,0.00
2023-01-15T05:16:43.207Z,0.00
2023-01-15T05:17:43.190Z,0.00
2023-01-15T05:18:43.210Z,0.00
2023-01-15T05:19:43.177Z,0.00
2023-01-15T05:20:43.145Z,0.00
2023-01-15T05:21:43.195Z,0.00
2023-01-15T05:22:43.116Z,0.00
2023-01-15T05:23:43.137Z,0.00
2023-01-15T05:24:43.134Z,0.00
2023-01-15T05:25:43.110Z,0.00
2023-01-15T05:26:43.098Z,0.00
2023-01-15T05:27:43.107Z,0.00
2023-01-15T05:28:43.087Z,0.00
2023-01-15T05:29:43.059Z,0.00
2023-01-15T05:30:43.119Z,0.00
2023-01-15T05:31:43.034Z,0.00
2023-01-15T05:32:43.396Z,0.00
2023-01-15T05:33:42.997Z,0.00
2023-01-15T05:34:42.982Z,0.00
2023-01-15T05:35:42.972Z,0.00
2023-01-15T05:36:43.057Z,0.00
2023-01-15T05:37:42.957Z,0.00
2023-01-15T05:38:42.963Z,0.00
2023-01-15T05:39:42.936Z,0.00
2023-01-15T05:40:42.965Z,0.00
2023-01-15T05:41:42.941Z,0.00
2023-01-15T05:42:43.057Z,0.00
2023-01-15T05:43:42.941Z,0.00
2023-01-15T05:44:42.883Z,0.00
2023-01-15T05:45:42.875Z,0.00
2023-01-15T05:46:42.877Z,0.00
2023-01-15T05:47:42.987Z,0.00
2023-01-15T05:48:42.874Z,0.00
2023-01-15T05:49:42.844Z,0.00
2023-01-15T05:50:42.815Z,0.00
2023-01-15T05:51:42.854Z,0.00
2023-01-15T05:52:42.791Z,0.00
2023-01-15T05:53:42.818Z,0.00
2023-01-15T05:54:42.813Z,0.00
2023-01-15T05:55:42.776Z,0.00
2023-01-15T05:56:42.746Z,0.00
2023-01-15T05:57:42.753Z,0.00
2023-01-15T05:58:42.723Z,0.00
2023-01-15T05:59:42.750Z,0.00
2023-01-15T06:00:42.712Z,0.00
2023-01-15T06:01:42.716Z,0.00
2023-01-15T06:02:42.721Z,0.00
2023-01-15T06:03:42.694Z,0.00
2023-01-15T06:04:42.656Z,0.00
2023-01-15T06:05:42.712Z,0.00
2023-01-15T06:06:42.697Z,0.00
2023-01-15T06:07:42.640Z,0.00
2023-01-15T06:08:42.638Z,0.00
2023-01-15T06:09:42.818Z,0.00
2023-01-15T06:10:42.603Z,0.00
2023-01-15T06:11:42.648Z,0.00
2023-01-15T06:12:42.570Z,0.00
2023-01-15T06:13:42.585Z,0.00
2023-01-15T06:14:42.561Z,0.00
2023-01-15T06:15:42.592Z,0.00
2023-01-15T06:16:42.533Z,0.00
2023-01-15T06:17:42.532Z,0.00
2023-01-15T06:18:42.513Z,0.00
2023-01-15T06:19:42.520Z,0.00
2023-01-15T06:20:42.523Z,0.00
2023-01-15T06:21:42.513Z,0.00
2023-01-15T06:22:42.492Z,0.00
2023-01-15T06:23:42.478Z,0.00
2023-01-15T06:24:42.465Z,0.00
2023-01-15T06:25:42.457Z,0.00
2023-01-15T06:26:42.441Z,0.00
2023-01-15T06:27:42.430Z,0.00
2023-01-15T06:28:42.453Z,0.00
2023-01-15T06:29:42.413Z,0.00
2023-01-15T06:30:42.405Z,0.00
2023-01-15T06:31:42.449Z,0.00
2023-01-15T06:32:42.364Z,0.00
2023-01-15T06:33:42.373Z,0.00
2023-01-15T06:34:42.430Z,0.00
2023-01-15T06:35:42.327Z,0.00
2023-01-15T06:36:42.685Z,0.00
2023-01-15T06:37:42.392Z,0.00
2023-01-15T06:38:42.593Z,0.00
2023-01-15T06:39:42.357Z,0.00
2023-01-15T06:40:42.280Z,0.00
2023-01-15T06:41:42.796Z,0.00
2023-01-15T06:42:42.314Z,0.00
2023-01-15T06:43:42.267Z,0.00
2023-01-15T06:44:42.259Z,0.00
2023-01-15T06:45:42.318Z,0.00
2023-01-15T06:46:42.412Z,0.00
2023-01-15T06:47:42.222Z,0.00
2023-01-15T06:48:42.199Z,0.00
2023-01-15T06:49:42.199Z,0.00
2023-01-15T06:50:42.180Z,0.00
2023-01-15T06:51:42.175Z,0.00
2023-01-15T06:52:42.224Z,0.00
2023-01-15T06:53:42.145Z,0.00
2023-01-15T06:54:42.200Z,0.00
2023-01-15T06:55:42.130Z,0.00
2023-01-15T06:56:42.108Z,0.00
2023-01-15T06:57:42.154Z,0.00
2023-01-15T06:58:42.099Z,0.00
2023-01-15T06:59:42.092Z,0.00
2023-01-15T07:00:42.094Z,0.00
2023-01-15T07:01:42.108Z,0.00
2023-01-15T07:02:41.980Z,1.00
2023-01-15T07:03:42.621Z,0.00
2023-01-15T07:04:42.064Z,0.00
2023-01-15T07:05:42.061Z,0.00
2023-01-15T07:06:41.950Z,1.00
2023-01-15T07:07:41.989Z,0.00
2023-01-15T07:08:41.973Z,0.00
2023-01-15T07:09:41.950Z,2.00
2023-01-15T07:10:42.021Z,1.00
2023-01-15T07:11:41.937Z,1.00
2023-01-15T07:12:41.884Z,2.00
2023-01-15T07:13:41.923Z,3.00
2023-01-15T07:14:41.904Z,3.00
2023-01-15T07:15:41.855Z,6.00
2023-01-15T07:16:41.857Z,8.00
2023-01-15T07:17:42.158Z,8.00
2023-01-15T07:18:42.249Z,9.00
2023-01-15T07:19:42.289Z,9.00
2023-01-15T07:20:41.879Z,11.00
2023-01-15T07:21:41.791Z,15.00
2023-01-15T07:22:41.769Z,19.00
2023-01-15T07:23:41.809Z,20.00
2023-01-15T07:24:41.793Z,23.00
2023-01-15T07:25:41.949Z,26.00
2023-01-15T07:26:41.733Z,33.00
2023-01-15T07:27:41.781Z,36.00
2023-01-15T07:28:41.723Z,37.00
2023-01-15T07:29:41.719Z,39.00
2023-01-15T07:30:41.726Z,38.00
2023-01-15T07:31:41.786Z,38.00
2023-01-15T07:32:41.705Z,47.00
2023-01-15T07:33:41.677Z,52.00
2023-01-15T07:34:41.636Z,55.00
2023-01-15T07:35:41.659Z,56.00
2023-01-15T07:36:41.673Z,61.00
2023-01-15T07:37:41.633Z,63.00
2023-01-15T07:38:41.632Z,80.00
2023-01-15T07:39:41.597Z,86.00
2023-01-15T07:40:41.816Z,93.00
2023-01-15T07:41:41.660Z,97.00
2023-01-15T07:42:41.580Z,98.00
2023-01-15T07:43:41.556Z,106.00
2023-01-15T07:44:41.554Z,111.00
2023-01-15T07:45:41.568Z,119.00
2023-01-15T07:46:41.588Z,130.00
2023-01-15T07:47:41.514Z,128.00
2023-01-15T07:48:41.523Z,116.00
2023-01-15T07:49:41.527Z,140.00
2023-01-15T07:50:41.537Z,121.00
2023-01-15T07:51:41.468Z,143.00
2023-01-15T07:52:41.472Z,170.00
2023-01-15T07:53:41.445Z,183.00
2023-01-15T07:54:41.437Z,172.00
2023-01-15T07:55:41.448Z,154.00
2023-01-15T07:56:41.432Z,130.00
2023-01-15T07:57:41.496Z,92.00
2023-01-15T07:58:41.400Z,149.00
2023-01-15T07:59:41.386Z,258.00
2023-01-15T08:00:42.015Z,317.00
2023-01-15T08:01:41.669Z,356.00
2023-01-15T08:02:41.373Z,377.00
2023-01-15T08:03:41.401Z,385.00
2023-01-15T08:04:41.344Z,392.00
2023-01-15T08:05:41.353Z,391.00
2023-01-15T08:06:41.343Z,391.00
2023-01-15T08:07:41.290Z,397.00
2023-01-15T08:08:41.538Z,412.00
2023-01-15T08:09:41.341Z,432.00
2023-01-15T08:10:41.371Z,439.00
2023-01-15T08:11:41.278Z,446.00
2023-01-15T08:12:41.364Z,453.00
2023-01-15T08:13:41.222Z,460.00
2023-01-15T08:14:41.222Z,470.00
2023-01-15T08:15:41.226Z,476.00
2023-01-15T08:16:41.439Z,476.00
2023-01-15T08:17:41.214Z,471.00
2023-01-15T08:18:41.261Z,473.00
2023-01-15T08:19:41.227Z,480.00
2023-01-15T08:20:41.187Z,475.00
2023-01-15T08:21:41.981Z,475.00
2023-01-15T08:22:41.164Z,496.00
2023-01-15T08:23:41.665Z,498.00
2023-01-15T08:24:41.151Z,506.00
2023-01-15T08:25:41.115Z,515.00
2023-01-15T08:26:41.114Z,505.00
2023-01-15T08:27:41.086Z,485.00
2023-01-15T08:28:41.135Z,458.00
2023-01-15T08:29:41.093Z,436.00
2023-01-15T08:30:41.128Z,425.00
2023-01-15T08:31:41.081Z,444.00
2023-01-15T08:32:41.193Z,441.00
2023-01-15T08:33:41.007Z,426.00
2023-01-15T08:34:41.028Z,386.00
2023-01-15T08:35:41.133Z,409.00
2023-01-15T08:36:41.121Z,399.00
2023-01-15T08:37:40.968Z,406.00
2023-01-15T08:38:41.008Z,393.00
2023-01-15T08:39:40.982Z,485.00
2023-01-15T08:40:40.955Z,552.00
2023-01-15T08:41:40.941Z,537.00
2023-01-15T08:42:41.077Z,496.00
2023-01-15T08:43:40.935Z,444.00
2023-01-15T08:44:40.924Z,428.00
2023-01-15T08:45:40.974Z,483.00
2023-01-15T08:46:40.919Z,507.00
2023-01-15T08:47:40.875Z,465.00
2023-01-15T08:48:40.845Z,669.00
2023-01-15T08:49:40.849Z,713.00
2023-01-15T08:50:40.863Z,709.00
2023-01-15T08:51:40.881Z,665.00
2023-01-15T08:52:40.909Z,583.00
2023-01-15T08:53:40.855Z,548.00
2023-01-15T08:54:42.154Z,450.00
2023-01-15T08:55:40.860Z,419.00
2023-01-15T08:56:40.861Z,430.00
2023-01-15T08:57:40.803Z,428.00
2023-01-15T08:58:40.778Z,432.00
2023-01-15T08:59:40.766Z,459.00
2023-01-15T09:00:40.792Z,458.00
2023-01-15T09:01:40.852Z,490.00
2023-01-15T09:02:40.718Z,587.00
2023-01-15T09:03:40.716Z,665.00
2023-01-15T09:04:40.720Z,603.00
2023-01-15T09:05:41.726Z,508.00
2023-01-15T09:06:40.811Z,531.00
2023-01-15T09:07:40.927Z,731.00
2023-01-15T09:08:40.662Z,1051.00
2023-01-15T09:09:40.667Z,1071.00
2023-01-15T09:10:40.627Z,1309.00
2023-01-15T09:11:40.688Z,1267.00
2023-01-15T09:12:40.623Z,1176.00
2023-01-15T09:13:42.464Z,1655.00
2023-01-15T09:14:57.413Z,1278.00
2023-01-15T09:15:40.575Z,1512.00
2023-01-15T09:16:40.712Z,1684.00
2023-01-15T09:17:40.583Z,1443.00
2023-01-15T09:18:40.532Z,2258.00
2023-01-15T09:19:40.555Z,1795.00
2023-01-15T09:20:40.559Z,1738.00
2023-01-15T09:21:40.535Z,1732.00
2023-01-15T09:22:40.570Z,2181.00
2023-01-15T09:23:40.500Z,2279.00
2023-01-15T09:24:40.605Z,2281.00
2023-01-15T09:25:40.489Z,2603.00
2023-01-15T09:26:40.528Z,1122.00
2023-01-15T09:27:40.588Z,3219.00
2023-01-15T09:28:40.445Z,1509.00
2023-01-15T09:29:40.420Z,3663.00
2023-01-15T09:30:40.510Z,2729.00
2023-01-15T09:31:40.465Z,866.00
2023-01-15T09:32:40.447Z,3682.00
2023-01-15T09:33:40.381Z,2639.00
2023-01-15T09:34:40.479Z,1939.00
2023-01-15T09:35:40.401Z,3169.00
2023-01-15T09:36:41.408Z,802.00
2023-01-15T09:37:40.389Z,3155.00
2023-01-15T09:38:40.442Z,4199.00
2023-01-15T09:39:40.320Z,3801.00
2023-01-15T09:40:40.306Z,1156.00
2023-01-15T09:41:40.397Z,3966.00
2023-01-15T09:42:40.324Z,6376.00
2023-01-15T09:43:50.186Z,3419.00
2023-01-15T09:44:40.275Z,4258.00
2023-01-15T09:45:40.345Z,2709.00
2023-01-15T09:46:40.339Z,2396.00
2023-01-15T09:47:40.249Z,4026.00
2023-01-15T09:48:40.237Z,1065.00
2023-01-15T09:49:40.249Z,4884.00
2023-01-15T09:50:40.236Z,2040.00
2023-01-15T09:51:40.218Z,4282.00
2023-01-15T09:52:40.368Z,3143.00
2023-01-15T09:53:40.241Z,3187.00
2023-01-15T09:54:40.172Z,3974.00
2023-01-15T09:55:40.161Z,1149.00
2023-01-15T09:56:40.157Z,7391.00
2023-01-15T09:57:40.129Z,1295.00
2023-01-15T09:58:40.146Z,6290.00
2023-01-15T09:59:40.108Z,8368.00
2023-01-15T10:00:40.106Z,2249.00
2023-01-15T10:01:40.095Z,1383.00
2023-01-15T10:02:40.173Z,6210.00
2023-01-15T10:03:40.079Z,2359.00
2023-01-15T10:04:40.249Z,1052.00
2023-01-15T10:05:40.026Z,4620.00
2023-01-15T10:06:40.050Z,3115.00
2023-01-15T10:07:40.045Z,2761.00
2023-01-15T10:08:40.250Z,3267.00
2023-01-15T10:09:40.024Z,2903.00
2023-01-15T10:10:39.995Z,1593.00
2023-01-15T10:11:39.976Z,2157.00
2023-01-15T10:12:40.087Z,3054.00
2023-01-15T10:13:40.347Z,1819.00
2023-01-15T10:14:40.155Z,13165.00
2023-01-15T10:15:40.579Z,11964.00
2023-01-15T10:16:39.924Z,1918.00
2023-01-15T10:17:39.900Z,6397.00
2023-01-15T10:18:39.906Z,2063.00
2023-01-15T10:19:44.677Z,14673.00
2023-01-15T10:20:39.987Z,25054.00
2023-01-15T10:21:39.947Z,16136.00
2023-01-15T10:22:39.891Z,19942.00
2023-01-15T10:23:40.260Z,8636.00
2023-01-15T10:24:39.848Z,3580.00
2023-01-15T10:25:39.955Z,2047.00
2023-01-15T10:26:39.967Z,2533.00
2023-01-15T10:27:39.795Z,3803.00
2023-01-15T10:28:40.139Z,1639.00
2023-01-15T10:29:39.772Z,4941.00
2023-01-15T10:30:39.830Z,2436.00
2023-01-15T10:31:39.987Z,3227.00
2023-01-15T10:32:39.792Z,807.00
2023-01-15T10:33:39.752Z,4224.00
2023-01-15T10:34:39.751Z,1543.00
2023-01-15T10:35:39.742Z,9093.00
2023-01-15T10:36:40.086Z,3943.00
2023-01-15T10:37:39.687Z,3898.00
2023-01-15T10:38:39.721Z,4183.00
2023-01-15T10:39:39.719Z,4794.00
2023-01-15T10:40:39.684Z,4201.00
2023-01-15T10:41:39.675Z,3927.00
2023-01-15T10:42:39.742Z,2820.00
2023-01-15T10:43:39.884Z,3670.00
2023-01-15T10:44:39.623Z,2512.00
2023-01-15T10:45:39.635Z,2089.00
2023-01-15T10:46:39.982Z,2154.00
2023-01-15T10:47:39.613Z,2867.00
2023-01-15T10:48:39.608Z,3101.00
2023-01-15T10:49:39.624Z,71015.00
2023-01-15T10:50:39.584Z,72056.00
2023-01-15T10:51:39.540Z,71436.00
2023-01-15T10:52:39.599Z,56179.00
2023-01-15T10:53:39.567Z,5261.00
2023-01-15T10:54:39.540Z,3547.00
2023-01-15T10:55:39.531Z,3065.00
2023-01-15T10:56:39.497Z,1825.00
2023-01-15T10:57:39.949Z,1381.00
2023-01-15T10:58:39.492Z,7740.00
2023-01-15T10:59:39.467Z,4247.00
2023-01-15T11:00:39.670Z,2296.00
2023-01-15T11:01:39.535Z,11991.00
2023-01-15T11:02:39.720Z,21358.00
2023-01-15T11:03:39.497Z,7082.00
2023-01-15T11:04:39.426Z,15553.00
2023-01-15T11:05:39.407Z,4219.00
2023-01-15T11:06:39.445Z,57895.00
2023-01-15T11:07:54.138Z,6454.00
2023-01-15T11:09:07.884Z,2320.00
2023-01-15T11:09:39.372Z,13482.00
2023-01-15T11:10:41.212Z,2523.00
2023-01-15T11:11:39.332Z,2211.00
2023-01-15T11:12:39.328Z,2993.00
2023-01-15T11:13:39.432Z,2945.00
2023-01-15T11:14:39.659Z,1250.00
2023-01-15T11:15:39.327Z,1285.00
2023-01-15T11:16:39.293Z,1073.00
2023-01-15T11:17:39.620Z,1035.00
2023-01-15T11:18:39.359Z,2112.00
2023-01-15T11:19:39.322Z,3704.00
2023-01-15T11:20:39.231Z,3327.00
2023-01-15T11:21:39.213Z,4213.00
2023-01-15T11:22:39.266Z,3262.00
2023-01-15T11:23:39.209Z,3558.00
2023-01-15T11:24:39.225Z,2053.00
2023-01-15T11:25:39.308Z,2618.00
2023-01-15T11:26:39.180Z,3540.00
2023-01-15T11:27:39.179Z,1109.00
2023-01-15T11:28:39.194Z,3379.00
2023-01-15T11:29:39.160Z,2259.00
2023-01-15T11:30:39.161Z,19367.00
2023-01-15T11:31:39.125Z,7621.00
2023-01-15T11:32:39.134Z,4780.00
2023-01-15T11:33:39.103Z,4649.00
2023-01-15T11:34:39.113Z,2869.00
2023-01-15T11:35:39.078Z,2067.00
2023-01-15T11:36:39.483Z,5205.00
2023-01-15T11:37:39.229Z,3153.00
2023-01-15T11:38:39.054Z,2240.00
2023-01-15T11:39:39.318Z,4092.00
2023-01-15T11:40:39.362Z,2640.00
2023-01-15T11:41:39.042Z,2916.00
2023-01-15T11:42:39.018Z,2779.00
2023-01-15T11:43:39.040Z,3385.00
2023-01-15T11:44:39.208Z,3075.00
2023-01-15T11:45:39.044Z,3199.00
2023-01-15T11:46:39.175Z,2355.00
2023-01-15T11:47:38.949Z,2114.00
2023-01-15T11:48:39.011Z,2517.00
2023-01-15T11:49:38.975Z,2150.00
2023-01-15T11:50:38.946Z,1324.00
2023-01-15T11:51:38.917Z,1604.00
2023-01-15T11:52:38.913Z,1083.00
2023-01-15T11:53:38.897Z,1416.00
2023-01-15T11:54:38.876Z,1442.00
2023-01-15T11:55:38.874Z,1357.00
2023-01-15T11:56:38.869Z,1147.00
2023-01-15T11:57:38.864Z,1223.00
2023-01-15T11:58:39.546Z,940.00
2023-01-15T11:59:38.829Z,816.00
2023-01-15T12:00:38.811Z,887.00
2023-01-15T12:01:38.795Z,1010.00
2023-01-15T12:02:38.805Z,897.00
2023-01-15T12:03:38.856Z,1244.00
2023-01-15T12:04:39.174Z,1202.00
2023-01-15T12:05:38.777Z,1347.00
2023-01-15T12:06:38.813Z,1261.00
2023-01-15T12:07:38.754Z,1724.00
2023-01-15T12:08:38.713Z,1186.00
2023-01-15T12:09:38.833Z,2172.00
2023-01-15T12:10:38.781Z,1233.00
2023-01-15T12:11:38.727Z,1737.00
2023-01-15T12:12:38.747Z,1789.00
2023-01-15T12:13:38.685Z,1025.00
2023-01-15T12:14:38.798Z,854.00
2023-01-15T12:15:38.659Z,905.00
2023-01-15T12:16:38.725Z,1221.00
2023-01-15T12:17:38.674Z,834.00
2023-01-15T12:18:38.610Z,551.00
2023-01-15T12:19:38.609Z,628.00
2023-01-15T12:20:38.603Z,536.00
2023-01-15T12:21:38.598Z,514.00
2023-01-15T12:22:38.609Z,498.00
2023-01-15T12:23:38.558Z,838.00
2023-01-15T12:24:38.638Z,1387.00
2023-01-15T12:25:38.873Z,1169.00
2023-01-15T12:26:38.532Z,1176.00
2023-01-15T12:27:38.549Z,940.00
2023-01-15T12:28:38.545Z,685.00
2023-01-15T12:29:38.521Z,551.00
2023-01-15T12:30:38.491Z,520.00
2023-01-15T12:31:38.545Z,417.00
2023-01-15T12:32:38.477Z,710.00
2023-01-15T12:33:38.463Z,2814.00
2023-01-15T12:34:38.836Z,4989.00
2023-01-15T12:35:38.442Z,3452.00
2023-01-15T12:36:38.579Z,1871.00
2023-01-15T12:37:38.449Z,1708.00
2023-01-15T12:38:38.477Z,1525.00
2023-01-15T12:39:38.403Z,1225.00
2023-01-15T12:40:38.382Z,893.00
2023-01-15T12:41:38.461Z,828.00
2023-01-15T12:42:38.488Z,631.00
2023-01-15T12:43:38.716Z,697.00
2023-01-15T12:44:38.650Z,1695.00
2023-01-15T12:45:38.371Z,3498.00
2023-01-15T12:46:38.364Z,2434.00
2023-01-15T12:47:38.355Z,3693.00
2023-01-15T12:48:38.302Z,2365.00
2023-01-15T12:49:38.286Z,1553.00
2023-01-15T12:50:38.281Z,3945.00